createdAt,value
2022-08-19T00:01:43.937Z,99326.53
2022-08-19T00:04:14.368Z,99323.50
2022-08-19T00:06:44.186Z,99331.63
2022-08-19T00:09:14.802Z,99327.00
2022-08-19T00:11:42.760Z,99322.34
2022-08-19T00:14:13.731Z,99321.78
2022-08-19T00:16:42.248Z,99321.16
2022-08-19T00:19:10.608Z,99334.00
2022-08-19T00:21:40.366Z,99332.88
2022-08-19T00:24:09.930Z,99321.38
2022-08-19T00:26:38.495Z,99317.78
2022-08-19T00:29:08.214Z,99320.34
2022-08-19T00:31:36.640Z,99328.38
2022-08-19T00:34:04.071Z,99327.12
2022-08-19T00:36:32.903Z,99321.94
2022-08-19T00:39:00.754Z,99325.28
2022-08-19T00:41:29.035Z,99323.69
2022-08-19T00:44:08.553Z,99324.66
2022-08-19T00:46:38.320Z,99316.03
2022-08-19T00:49:23.882Z,99322.69
2022-08-19T00:52:02.347Z,99310.31
2022-08-19T00:54:32.361Z,99315.03
2022-08-19T00:57:00.868Z,99321.50
2022-08-19T01:00:00.752Z,99318.97
2022-08-19T01:02:17.609Z,99314.87
2022-08-19T01:04:45.171Z,99317.66
2022-08-19T01:07:15.859Z,99311.53
2022-08-19T01:09:47.638Z,99308.37
2022-08-19T01:12:15.506Z,99312.75
2022-08-19T01:14:43.110Z,99316.47
2022-08-19T01:17:11.302Z,99307.84
2022-08-19T01:19:44.043Z,99312.22
2022-08-19T01:22:20.061Z,99310.06
2022-08-19T01:24:53.086Z,99307.84
2022-08-19T01:27:22.951Z,99307.16
2022-08-19T01:29:52.302Z,99303.31
2022-08-19T01:32:33.140Z,99304.25
2022-08-19T01:35:03.322Z,99291.97
2022-08-19T01:37:43.167Z,99302.78
2022-08-19T01:40:11.453Z,99294.53
2022-08-19T01:42:38.871Z,99288.12
2022-08-19T01:45:08.408Z,99285.06
2022-08-19T01:47:37.287Z,99276.56
2022-08-19T01:50:07.003Z,99276.56
2022-08-19T01:52:36.931Z,99272.53
2022-08-19T01:55:07.219Z,99264.81
2022-08-19T01:57:34.971Z,99263.63
2022-08-19T02:00:05.059Z,99266.84
2022-08-19T02:02:39.250Z,99256.38
2022-08-19T02:05:11.288Z,99245.22
2022-08-19T02:07:39.263Z,99247.56
2022-08-19T02:10:16.506Z,99252.47
2022-08-19T02:12:44.863Z,99260.16
2022-08-19T02:15:12.817Z,99264.88
2022-08-19T02:17:40.848Z,99260.00
2022-08-19T02:20:09.259Z,99259.31
2022-08-19T02:22:36.967Z,99248.88
2022-08-19T02:25:06.169Z,99237.44
2022-08-19T02:27:34.379Z,99230.87
2022-08-19T02:30:02.209Z,99228.19
2022-08-19T02:32:31.398Z,99239.00
2022-08-19T02:34:58.775Z,99246.69
2022-08-19T02:37:52.791Z,99246.31
2022-08-19T02:40:20.310Z,99255.06
2022-08-19T02:42:47.947Z,99248.03
2022-08-19T02:45:15.523Z,99249.62
2022-08-19T02:47:43.701Z,99262.81
2022-08-19T02:50:11.335Z,99259.84
2022-08-19T02:52:38.677Z,99257.25
2022-08-19T02:55:06.827Z,99262.19
2022-08-19T02:57:35.137Z,99274.22
2022-08-19T03:00:06.096Z,99275.56
2022-08-19T03:02:33.675Z,99268.16
2022-08-19T03:05:00.996Z,99265.09
2022-08-19T03:07:28.359Z,99267.06
2022-08-19T03:09:55.935Z,99275.47
2022-08-19T03:12:23.315Z,99275.91
2022-08-19T03:14:51.893Z,99274.63
2022-08-19T03:17:19.917Z,99284.94
2022-08-19T03:19:47.269Z,99289.56
2022-08-19T03:22:15.032Z,99287.13
2022-08-19T03:24:42.727Z,99292.97
2022-08-19T03:27:10.706Z,99279.44
2022-08-19T03:29:43.205Z,99288.28
2022-08-19T03:32:31.714Z,99294.63
2022-08-19T03:34:59.017Z,99296.22
2022-08-19T03:37:27.131Z,99292.97
2022-08-19T03:39:54.733Z,99290.16
2022-08-19T03:42:38.394Z,99295.75
2022-08-19T03:45:11.380Z,99296.97
2022-08-19T03:47:39.026Z,99313.25
2022-08-19T03:50:06.824Z,99311.06
2022-08-19T03:52:34.428Z,99312.53
2022-08-19T03:55:01.795Z,99310.94
2022-08-19T03:57:31.993Z,99306.44
2022-08-19T04:00:13.024Z,99306.97
2022-08-19T04:02:42.899Z,99311.94
2022-08-19T04:05:29.999Z,99315.81
2022-08-19T04:08:00.090Z,99310.97
2022-08-19T04:10:29.219Z,99318.50
2022-08-19T04:12:56.609Z,99327.75
2022-08-19T04:15:24.214Z,99327.66
2022-08-19T04:17:51.531Z,99330.31
2022-08-19T04:20:18.922Z,99327.25
2022-08-19T04:22:46.533Z,99321.44
2022-08-19T04:25:14.004Z,99321.31
2022-08-19T04:27:44.310Z,99323.50
2022-08-19T04:30:12.715Z,99330.94
2022-08-19T04:32:40.046Z,99332.13
2022-08-19T04:35:16.986Z,99334.53
2022-08-19T04:37:46.314Z,99329.19
2022-08-19T04:40:32.292Z,99330.91
2022-08-19T04:42:59.887Z,99334.44
2022-08-19T04:45:27.244Z,99335.66
2022-08-19T04:48:19.521Z,99335.78
2022-08-19T04:50:45.827Z,99339.44
2022-08-19T04:53:13.244Z,99331.75
2022-08-19T04:55:42.555Z,99336.59
2022-08-19T04:58:10.154Z,99338.31
2022-08-19T05:00:39.758Z,99347.44
2022-08-19T05:03:07.770Z,99349.62
2022-08-19T05:05:44.816Z,99346.13
2022-08-19T05:08:15.168Z,99350.38
2022-08-19T05:10:43.137Z,99346.56
2022-08-19T05:13:11.759Z,99348.75
2022-08-19T05:15:39.109Z,99346.53
2022-08-19T05:18:25.043Z,99342.75
2022-08-19T05:21:11.063Z,99332.91
2022-08-19T05:23:38.831Z,99339.13
2022-08-19T05:26:06.191Z,99343.38
2022-08-19T05:28:33.570Z,99348.53
2022-08-19T05:31:01.184Z,99350.00
2022-08-19T05:33:28.785Z,99351.56
2022-08-19T05:35:56.983Z,99355.72
2022-08-19T05:38:24.563Z,99354.81
2022-08-19T05:40:51.976Z,99350.38
2022-08-19T05:43:19.337Z,99351.72
2022-08-19T05:45:47.002Z,99348.78
2022-08-19T05:48:15.070Z,99350.41
2022-08-19T05:50:42.667Z,99352.41
2022-08-19T05:53:10.370Z,99349.47
2022-08-19T05:55:39.530Z,99341.97
2022-08-19T05:58:08.528Z,99348.47
2022-08-19T06:00:37.484Z,99342.97
2022-08-19T06:03:12.566Z,99347.09
2022-08-19T06:05:46.155Z,99343.66
2022-08-19T06:08:20.567Z,99346.03
2022-08-19T06:11:18.512Z,99346.03
2022-08-19T06:13:48.533Z,99333.91
2022-08-19T06:16:23.393Z,99332.16
2022-08-19T06:18:52.593Z,99335.00
2022-08-19T06:21:25.166Z,99335.63
2022-08-19T06:23:53.128Z,99335.91
2022-08-19T06:26:21.092Z,99329.72
2022-08-19T06:28:49.032Z,99319.84
2022-08-19T06:31:19.484Z,99317.19
2022-08-19T06:33:47.489Z,99328.66
2022-08-19T06:36:32.414Z,99318.28
2022-08-19T06:39:00.360Z,99318.84
2022-08-19T06:41:28.285Z,99318.13
2022-08-19T06:43:56.476Z,99311.75
2022-08-19T06:46:24.290Z,99312.06
2022-08-19T06:48:54.343Z,99316.13
2022-08-19T06:51:22.770Z,99319.28
2022-08-19T06:53:52.916Z,99325.16
2022-08-19T06:56:25.815Z,99331.81
2022-08-19T06:58:53.802Z,99339.06
2022-08-19T07:01:21.487Z,99350.38
2022-08-19T07:03:48.874Z,99346.81
2022-08-19T07:06:43.645Z,99355.03
2022-08-19T07:09:10.955Z,99348.13
2022-08-19T07:11:39.801Z,99353.81
2022-08-19T07:14:07.490Z,99356.53
2022-08-19T07:16:49.508Z,99355.78
2022-08-19T07:19:18.922Z,99361.44
2022-08-19T07:21:53.607Z,99355.91
2022-08-19T07:24:25.457Z,99367.56
2022-08-19T07:26:55.879Z,99365.91
2022-08-19T07:29:25.675Z,99360.06
2022-08-19T07:31:57.396Z,99357.25
2022-08-19T07:34:29.399Z,99359.56
2022-08-19T07:36:57.576Z,99362.84
2022-08-19T07:39:30.920Z,99357.16
2022-08-19T07:42:00.148Z,99357.53
2022-08-19T07:44:27.502Z,99347.00
2022-08-19T07:46:57.269Z,99356.31
2022-08-19T07:49:25.162Z,99349.59
2022-08-19T07:51:58.348Z,99345.37
2022-08-19T07:54:27.972Z,99348.69
2022-08-19T07:56:55.456Z,99356.91
2022-08-19T07:59:23.656Z,99360.50
2022-08-19T08:01:52.004Z,99365.12
2022-08-19T08:04:38.450Z,99361.59
2022-08-19T08:07:25.412Z,99365.38
2022-08-19T08:10:00.644Z,99355.50
2022-08-19T08:12:42.160Z,99357.47
2022-08-19T08:15:17.360Z,99362.88
2022-08-19T08:17:49.341Z,99356.94
2022-08-19T08:20:17.769Z,99356.03
2022-08-19T08:23:05.313Z,99356.38
2022-08-19T08:25:34.429Z,99359.19
2022-08-19T08:28:03.611Z,99355.88
2022-08-19T08:30:33.739Z,99345.59
2022-08-19T08:33:02.512Z,99352.94
2022-08-19T08:35:30.152Z,99351.78
2022-08-19T08:37:57.770Z,99347.84
2022-08-19T08:40:35.388Z,99337.78
2022-08-19T08:43:06.065Z,99323.78
2022-08-19T08:45:53.566Z,99320.50
2022-08-19T08:48:42.948Z,99333.34
2022-08-19T08:51:20.119Z,99336.06
2022-08-19T08:53:49.870Z,99345.34
2022-08-19T08:56:24.024Z,99348.94
2022-08-19T08:58:57.371Z,99333.09
2022-08-19T09:01:29.046Z,99335.47
2022-08-19T09:04:02.860Z,99331.09
2022-08-19T09:06:41.805Z,99322.81
2022-08-19T09:09:18.859Z,99324.03
2022-08-19T09:11:52.472Z,99321.63
2022-08-19T09:14:52.336Z,99320.97
2022-08-19T09:17:29.165Z,99328.03
2022-08-19T09:20:11.278Z,99307.94
2022-08-19T09:22:40.222Z,99314.87
2022-08-19T09:25:09.792Z,99309.47
2022-08-19T09:27:43.027Z,99301.69
2022-08-19T09:30:32.453Z,99306.09
2022-08-19T09:33:00.385Z,99306.09
2022-08-19T09:35:29.816Z,99306.78
2022-08-19T09:37:59.537Z,99308.13
2022-08-19T09:40:30.015Z,99304.09
2022-08-19T09:43:01.052Z,99289.22
2022-08-19T09:45:28.672Z,99304.56
2022-08-19T09:47:57.237Z,99299.50
2022-08-19T09:50:25.231Z,99288.53
2022-08-19T09:52:57.311Z,99283.13
2022-08-19T09:55:31.840Z,99282.78
2022-08-19T09:58:01.624Z,99284.97
2022-08-19T10:00:29.817Z,99287.16
2022-08-19T10:02:57.478Z,99278.50
2022-08-19T10:05:43.492Z,99278.97
2022-08-19T10:08:13.649Z,99280.31
2022-08-19T10:10:46.657Z,99277.56
2022-08-19T10:13:17.813Z,99274.63
2022-08-19T10:15:47.627Z,99272.38
2022-08-19T10:18:19.083Z,99274.00
2022-08-19T10:20:51.723Z,99273.59
2022-08-19T10:23:21.645Z,99265.31
2022-08-19T10:25:49.835Z,99261.09
2022-08-19T10:28:19.163Z,99258.69
2022-08-19T10:30:48.327Z,99256.66
2022-08-19T10:33:16.132Z,99267.00
2022-08-19T10:36:10.669Z,99256.88
2022-08-19T10:38:38.346Z,99275.84
2022-08-19T10:41:12.017Z,99265.25
2022-08-19T10:43:40.829Z,99261.25
2022-08-19T10:46:14.072Z,99254.50
2022-08-19T10:48:44.645Z,99260.47
2022-08-19T10:51:31.747Z,99256.66
2022-08-19T10:54:00.229Z,99259.91
2022-08-19T10:56:47.501Z,99262.75
2022-08-19T10:59:15.649Z,99264.31
2022-08-19T11:01:45.888Z,99270.06
2022-08-19T11:04:14.696Z,99255.56
2022-08-19T11:06:44.368Z,99256.53
2022-08-19T11:09:12.588Z,99263.47
2022-08-19T11:11:42.740Z,99261.69
2022-08-19T11:14:12.020Z,99264.88
2022-08-19T11:16:43.185Z,99264.22
2022-08-19T11:19:12.635Z,99263.19
2022-08-19T11:21:42.439Z,99267.13
2022-08-19T11:24:13.279Z,99272.09
2022-08-19T11:26:41.850Z,99261.97
2022-08-19T11:29:12.403Z,99268.16
2022-08-19T11:31:42.301Z,99269.25
2022-08-19T11:34:13.134Z,99258.88
2022-08-19T11:36:43.599Z,99263.63
2022-08-19T11:39:12.908Z,99274.91
2022-08-19T11:41:41.267Z,99264.41
2022-08-19T11:44:10.048Z,99260.47
2022-08-19T11:46:38.557Z,99257.09
2022-08-19T11:49:10.658Z,99248.31
2022-08-19T11:51:43.776Z,99249.41
2022-08-19T11:54:11.896Z,99239.28
2022-08-19T11:56:39.760Z,99243.44
2022-08-19T11:59:12.778Z,99246.25
2022-08-19T12:01:43.482Z,99251.47
2022-08-19T12:04:11.568Z,99248.09
2022-08-19T12:06:40.375Z,99242.19
2022-08-19T12:09:10.246Z,99255.50
2022-08-19T12:11:39.360Z,99249.25
2022-08-19T12:14:07.420Z,99248.97
2022-08-19T12:16:36.277Z,99256.91
2022-08-19T12:19:06.473Z,99250.06
2022-08-19T12:21:36.210Z,99249.31
2022-08-19T12:24:05.323Z,99251.00
2022-08-19T12:26:52.548Z,99249.31
2022-08-19T12:29:23.798Z,99248.16
2022-08-19T12:31:52.153Z,99246.81
2022-08-19T12:34:21.021Z,99246.25
2022-08-19T12:36:50.267Z,99235.19
2022-08-19T12:39:18.297Z,99222.91
2022-08-19T12:41:54.204Z,99220.06
2022-08-19T12:44:29.349Z,99224.81
2022-08-19T12:46:59.888Z,99220.25
2022-08-19T12:49:53.364Z,99218.53
2022-08-19T12:52:19.882Z,99202.63
2022-08-19T12:54:53.822Z,99209.91
2022-08-19T12:57:27.042Z,99218.81
2022-08-19T13:00:13.390Z,99208.56
2022-08-19T13:02:42.409Z,99201.97
2022-08-19T13:05:12.075Z,99199.13
2022-08-19T13:07:40.477Z,99201.94
2022-08-19T13:10:10.109Z,99202.34
2022-08-19T13:12:37.725Z,99208.28
2022-08-19T13:15:10.541Z,99218.03
2022-08-19T13:17:40.108Z,99194.28
2022-08-19T13:20:09.340Z,99198.00
2022-08-19T13:22:37.300Z,99195.94
2022-08-19T13:25:06.654Z,99194.72
2022-08-19T13:27:34.548Z,99205.50
2022-08-19T13:30:21.462Z,99204.00
2022-08-19T13:33:11.912Z,99206.63
2022-08-19T13:35:40.975Z,99214.88
2022-08-19T13:38:11.748Z,99226.22
2022-08-19T13:40:42.516Z,99227.25
2022-08-19T13:43:13.493Z,99216.47
2022-08-19T13:45:53.523Z,99232.47
2022-08-19T13:48:21.268Z,99241.19
2022-08-19T13:50:49.074Z,99246.91
2022-08-19T13:53:16.708Z,99254.47
2022-08-19T13:55:44.757Z,99260.75
2022-08-19T13:58:12.880Z,99272.06
2022-08-19T14:00:43.376Z,99257.72
2022-08-19T14:03:11.389Z,99252.13
2022-08-19T14:05:39.203Z,99254.72
2022-08-19T14:08:06.591Z,99247.97
2022-08-19T14:10:34.686Z,99245.25
2022-08-19T14:13:03.924Z,99245.63
2022-08-19T14:15:31.934Z,99247.56
2022-08-19T14:17:59.591Z,99236.97
2022-08-19T14:20:27.287Z,99239.50
2022-08-19T14:22:55.712Z,99235.44
2022-08-19T14:25:27.170Z,99223.47
2022-08-19T14:27:55.059Z,99241.31
2022-08-19T14:30:29.157Z,99238.09
2022-08-19T14:32:58.992Z,99231.44
2022-08-19T14:35:28.297Z,99235.47
2022-08-19T14:37:56.050Z,99230.22
2022-08-19T14:40:26.847Z,99236.34
2022-08-19T14:43:00.308Z,99247.97
2022-08-19T14:45:29.047Z,99251.00
2022-08-19T14:47:56.763Z,99249.19
2022-08-19T14:50:24.321Z,99261.41
2022-08-19T14:53:00.554Z,99256.88
2022-08-19T14:55:28.415Z,99247.22
2022-08-19T14:57:55.860Z,99244.28
2022-08-19T15:00:25.716Z,99252.88
2022-08-19T15:02:55.504Z,99254.28
2022-08-19T15:05:23.190Z,99255.31
2022-08-19T15:07:50.757Z,99265.75
2022-08-19T15:10:18.535Z,99272.81
2022-08-19T15:12:49.829Z,99276.91
2022-08-19T15:15:19.841Z,99281.91
2022-08-19T15:17:47.423Z,99290.53
2022-08-19T15:20:17.978Z,99294.44
2022-08-19T15:22:46.205Z,99305.91
2022-08-19T15:25:16.634Z,99300.75
2022-08-19T15:27:44.175Z,99307.09
2022-08-19T15:30:12.556Z,99318.56
2022-08-19T15:32:40.193Z,99319.62
2022-08-19T15:35:08.324Z,99308.81
2022-08-19T15:37:37.627Z,99291.75
2022-08-19T15:40:07.528Z,99280.03
2022-08-19T15:42:38.756Z,99259.41
2022-08-19T15:45:08.108Z,99250.31
2022-08-19T15:47:36.340Z,99254.19
2022-08-19T15:50:17.486Z,99259.06
2022-08-19T15:52:49.716Z,99247.34
2022-08-19T15:55:32.872Z,99242.44
2022-08-19T15:58:29.873Z,99240.09
2022-08-19T16:01:21.553Z,99235.06
2022-08-19T16:04:14.503Z,99235.09
2022-08-19T16:06:50.005Z,99228.47
2022-08-19T16:09:24.891Z,99224.44
2022-08-19T16:11:56.780Z,99215.97
2022-08-19T16:14:25.317Z,99214.88
2022-08-19T16:16:53.972Z,99220.22
2022-08-19T16:19:21.339Z,99229.19
2022-08-19T16:21:51.250Z,99233.91
2022-08-19T16:24:21.544Z,99241.50
2022-08-19T16:26:49.564Z,99236.00
2022-08-19T16:29:25.830Z,99240.53
2022-08-19T16:32:04.657Z,99262.53
2022-08-19T16:34:32.420Z,99277.00
2022-08-19T16:37:01.083Z,99294.97
2022-08-19T16:39:28.985Z,99314.69
2022-08-19T16:41:56.340Z,99338.66
2022-08-19T16:44:23.909Z,99347.03
2022-08-19T16:46:58.806Z,99352.69
2022-08-19T16:49:53.749Z,99358.41
2022-08-19T16:52:18.879Z,99364.31
2022-08-19T16:54:47.147Z,99354.03
2022-08-19T16:57:14.703Z,99355.34
2022-08-19T16:59:44.141Z,99375.13
2022-08-19T17:02:20.423Z,99372.31
2022-08-19T17:04:58.383Z,99391.25
2022-08-19T17:07:32.266Z,99385.28
2022-08-19T17:10:02.212Z,99339.19
2022-08-19T17:12:32.228Z,99318.69
2022-08-19T17:15:01.288Z,99268.81
2022-08-19T17:17:30.250Z,99237.94
2022-08-19T17:19:59.369Z,99219.00
2022-08-19T17:22:27.061Z,99209.37
2022-08-19T17:24:56.131Z,99204.78
2022-08-19T17:27:31.314Z,99194.84
2022-08-19T17:30:02.360Z,99192.69
2022-08-19T17:32:30.881Z,99189.16
2022-08-19T17:34:58.756Z,99164.28
2022-08-19T17:37:26.419Z,99161.25
2022-08-19T17:39:53.953Z,99145.38
2022-08-19T17:42:21.774Z,99134.75
2022-08-19T17:44:50.730Z,99135.25
2022-08-19T17:47:19.525Z,99146.59
2022-08-19T17:49:47.036Z,99136.75
2022-08-19T17:52:14.696Z,99149.78
2022-08-19T17:54:42.011Z,99151.59
2022-08-19T17:57:09.592Z,99156.00
2022-08-19T17:59:37.573Z,99171.63
2022-08-19T18:02:06.774Z,99216.63
2022-08-19T18:04:36.821Z,99255.47
2022-08-19T18:07:04.520Z,99327.53
2022-08-19T18:09:41.306Z,99361.06
2022-08-19T18:12:12.090Z,99402.44
2022-08-19T18:14:39.879Z,99365.28
2022-08-19T18:17:12.376Z,99328.06
2022-08-19T18:19:43.127Z,99338.06
2022-08-19T18:22:29.070Z,99357.47
2022-08-19T18:24:58.231Z,99405.97
2022-08-19T18:27:27.038Z,99430.09
2022-08-19T18:29:59.255Z,99462.22
2022-08-19T18:32:33.060Z,99535.87
2022-08-19T18:35:01.869Z,99546.81
2022-08-19T18:37:29.461Z,99524.09
2022-08-19T18:40:15.326Z,99522.22
2022-08-19T18:43:05.238Z,99537.69
2022-08-19T18:45:51.265Z,99555.41
2022-08-19T18:48:37.843Z,99568.28
2022-08-19T18:51:05.227Z,99596.94
2022-08-19T18:53:34.899Z,99578.66
2022-08-19T18:56:02.451Z,99530.78
2022-08-19T18:58:33.801Z,99549.00
2022-08-19T19:01:10.517Z,99518.59
2022-08-19T19:03:42.491Z,99473.81
2022-08-19T19:06:10.128Z,99458.84
2022-08-19T19:08:38.924Z,99418.84
2022-08-19T19:11:08.435Z,99395.38
2022-08-19T19:13:37.419Z,99387.59
2022-08-19T19:16:04.941Z,99390.16
2022-08-19T19:18:34.239Z,99424.72
2022-08-19T19:21:01.835Z,99451.75
2022-08-19T19:23:29.191Z,99420.78
2022-08-19T19:25:56.576Z,99360.78
2022-08-19T19:28:28.638Z,99324.34
2022-08-19T19:31:00.132Z,99340.28
2022-08-19T19:33:27.936Z,99359.69
2022-08-19T19:35:55.448Z,99358.19
2022-08-19T19:38:22.820Z,99346.25
2022-08-19T19:40:50.413Z,99344.47
2022-08-19T19:43:18.215Z,99320.16
2022-08-19T19:45:46.739Z,99313.44
2022-08-19T19:48:16.180Z,99317.72
2022-08-19T19:50:45.029Z,99320.50
2022-08-19T19:53:15.009Z,99320.16
2022-08-19T19:55:43.105Z,99326.88
2022-08-19T19:58:10.446Z,99334.12
2022-08-19T20:00:37.916Z,99336.69
2022-08-19T20:03:06.301Z,99335.00
2022-08-19T20:05:33.625Z,99360.66
2022-08-19T20:08:19.658Z,99561.91
2022-08-19T20:10:47.439Z,99546.47
2022-08-19T20:13:15.604Z,99554.03
2022-08-19T20:15:45.885Z,99580.88
2022-08-19T20:18:14.649Z,99616.06
2022-08-19T20:20:42.950Z,99638.31
2022-08-19T20:23:10.331Z,99637.91
2022-08-19T20:25:38.815Z,99631.56
2022-08-19T20:28:06.417Z,99642.00
2022-08-19T20:30:33.889Z,99636.78
2022-08-19T20:33:04.619Z,99636.47
2022-08-19T20:35:32.806Z,99638.69
2022-08-19T20:38:03.714Z,99647.41
2022-08-19T20:40:32.222Z,99667.00
2022-08-19T20:42:59.619Z,99680.19
2022-08-19T20:45:33.693Z,99695.87
2022-08-19T20:48:03.406Z,99681.72
2022-08-19T20:50:35.726Z,99687.03
2022-08-19T20:53:15.196Z,99673.47
2022-08-19T20:55:44.842Z,99673.37
2022-08-19T20:58:13.432Z,99670.25
2022-08-19T21:00:42.017Z,99661.22
2022-08-19T21:03:09.655Z,99666.25
2022-08-19T21:05:37.027Z,99645.31
2022-08-19T21:08:04.579Z,99644.97
2022-08-19T21:10:32.578Z,99647.62
2022-08-19T21:12:59.975Z,99652.19
2022-08-19T21:15:27.317Z,99642.13
2022-08-19T21:17:55.053Z,99628.25
2022-08-19T21:20:22.861Z,99615.75
2022-08-19T21:22:50.564Z,99579.34
2022-08-19T21:25:18.245Z,99565.69
2022-08-19T21:27:45.561Z,99527.94
2022-08-19T21:30:13.314Z,99499.84
2022-08-19T21:32:40.980Z,99480.66
2022-08-19T21:35:08.392Z,99481.50
2022-08-19T21:37:36.323Z,99481.56
2022-08-19T21:40:05.306Z,99482.41
2022-08-19T21:42:32.680Z,99460.37
2022-08-19T21:45:00.204Z,99444.66
2022-08-19T21:47:27.815Z,99462.41
2022-08-19T21:49:55.335Z,99450.97
2022-08-19T21:52:23.915Z,99423.56
2022-08-19T21:54:51.936Z,99411.97
2022-08-19T21:57:19.272Z,99415.38
2022-08-19T21:59:46.596Z,99419.22
2022-08-19T22:02:20.420Z,99412.09
2022-08-19T22:04:53.171Z,99406.37
2022-08-19T22:07:21.940Z,99400.56
2022-08-19T22:09:50.444Z,99386.56
2022-08-19T22:12:37.560Z,99357.06
2022-08-19T22:15:09.020Z,99341.88
2022-08-19T22:17:36.424Z,99362.06
2022-08-19T22:20:05.686Z,99334.56
2022-08-19T22:22:34.257Z,99366.94
2022-08-19T22:25:13.884Z,99368.63
2022-08-19T22:28:01.762Z,99348.62
2022-08-19T22:30:33.707Z,99341.50
2022-08-19T22:33:03.097Z,99356.25
2022-08-19T22:35:31.936Z,99355.13
2022-08-19T22:38:00.039Z,99353.81
2022-08-19T22:40:29.667Z,99340.94
2022-08-19T22:42:59.941Z,99328.56
2022-08-19T22:45:28.326Z,99333.38
2022-08-19T22:47:55.983Z,99338.50
2022-08-19T22:50:23.778Z,99324.72
2022-08-19T22:52:59.011Z,99312.28
2022-08-19T22:55:27.572Z,99299.28
2022-08-19T22:57:56.143Z,99283.44
2022-08-19T23:00:25.975Z,99298.94
2022-08-19T23:02:54.463Z,99287.25
2022-08-19T23:05:24.522Z,99289.06
2022-08-19T23:07:52.523Z,99294.41
2022-08-19T23:10:26.547Z,99299.16
2022-08-19T23:12:59.101Z,99302.91
2022-08-19T23:15:29.748Z,99304.41
2022-08-19T23:17:59.978Z,99294.63
2022-08-19T23:20:29.935Z,99306.31
2022-08-19T23:22:58.016Z,99310.44
2022-08-19T23:25:31.249Z,99312.19
2022-08-19T23:28:17.859Z,99311.03
2022-08-19T23:30:47.655Z,99305.94
2022-08-19T23:33:24.277Z,99300.41
2022-08-19T23:36:00.598Z,99290.38
2022-08-19T23:38:30.145Z,99295.00
2022-08-19T23:40:58.988Z,99278.03
2022-08-19T23:43:29.625Z,99283.16
2022-08-19T23:45:59.044Z,99289.69
2022-08-19T23:48:31.236Z,99290.19
2022-08-19T23:51:00.449Z,99281.03
2022-08-19T23:53:27.790Z,99277.63
2022-08-19T23:55:55.934Z,99276.97
2022-08-19T23:58:23.811Z,99276.31
